sensor_id;sensor_type;location;lat;lon;timestamp;P1;durP1;ratioP1;P2;durP2;ratioP2
84048;SDS011;74136;51.684;7.862;2023-12-29T00:00:03;6.53;;;1.23;;
84048;SDS011;74136;51.684;7.862;2023-12-29T00:02:29;7.63;;;1.33;;
84048;SDS011;74136;51.684;7.862;2023-12-29T00:04:55;9.88;;;1.83;;
84048;SDS011;74136;51.684;7.862;2023-12-29T00:07:20;6.53;;;1.65;;
84048;SDS011;74136;51.684;7.862;2023-12-29T00:09:46;13.95;;;1.60;;
84048;SDS011;74136;51.684;7.862;2023-12-29T00:12:11;5.70;;;1.73;;
84048;SDS011;74136;51.684;7.862;2023-12-29T00:14:38;17.67;;;2.67;;
84048;SDS011;74136;51.684;7.862;2023-12-29T00:17:04;4.22;;;1.55;;
84048;SDS011;74136;51.684;7.862;2023-12-29T00:19:29;8.10;;;1.80;;
84048;SDS011;74136;51.684;7.862;2023-12-29T00:21:55;10.35;;;1.23;;
84048;SDS011;74136;51.684;7.862;2023-12-29T00:24:20;13.15;;;1.48;;
84048;SDS011;74136;51.684;7.862;2023-12-29T00:26:45;5.55;;;1.00;;
84048;SDS011;74136;51.684;7.862;2023-12-29T00:29:12;8.07;;;1.80;;
84048;SDS011;74136;51.684;7.862;2023-12-29T00:31:40;5.97;;;1.30;;
84048;SDS011;74136;51.684;7.862;2023-12-29T00:34:05;8.88;;;1.50;;
84048;SDS011;74136;51.684;7.862;2023-12-29T00:36:30;4.40;;;0.90;;
84048;SDS011;74136;51.684;7.862;2023-12-29T00:38:56;7.95;;;1.52;;
84048;SDS011;74136;51.684;7.862;2023-12-29T00:41:21;7.57;;;1.42;;
84048;SDS011;74136;51.684;7.862;2023-12-29T00:43:50;7.43;;;1.30;;
84048;SDS011;74136;51.684;7.862;2023-12-29T00:46:15;7.95;;;1.30;;
84048;SDS011;74136;51.684;7.862;2023-12-29T00:48:41;7.55;;;1.23;;
84048;SDS011;74136;51.684;7.862;2023-12-29T00:51:06;9.75;;;2.45;;
84048;SDS011;74136;51.684;7.862;2023-12-29T00:53:32;6.25;;;1.27;;
84048;SDS011;74136;51.684;7.862;2023-12-29T00:55:59;8.30;;;1.67;;
84048;SDS011;74136;51.684;7.862;2023-12-29T00:58:25;8.40;;;1.33;;
84048;SDS011;74136;51.684;7.862;2023-12-29T01:00:50;8.88;;;1.70;;
84048;SDS011;74136;51.684;7.862;2023-12-29T01:03:16;7.28;;;1.20;;
84048;SDS011;74136;51.684;7.862;2023-12-29T01:05:41;9.38;;;1.33;;
84048;SDS011;74136;51.684;7.862;2023-12-29T01:08:07;6.47;;;1.40;;
84048;SDS011;74136;51.684;7.862;2023-12-29T01:10:32;4.53;;;1.05;;
84048;SDS011;74136;51.684;7.862;2023-12-29T01:12:57;11.00;;;2.20;;
84048;SDS011;74136;51.684;7.862;2023-12-29T01:15:22;8.65;;;1.40;;
84048;SDS011;74136;51.684;7.862;2023-12-29T01:17:48;10.32;;;1.77;;
84048;SDS011;74136;51.684;7.862;2023-12-29T01:20:13;8.30;;;1.00;;
84048;SDS011;74136;51.684;7.862;2023-12-29T01:22:39;7.63;;;1.80;;
84048;SDS011;74136;51.684;7.862;2023-12-29T01:25:04;6.43;;;1.23;;
84048;SDS011;74136;51.684;7.862;2023-12-29T01:27:30;11.10;;;1.70;;
84048;SDS011;74136;51.684;7.862;2023-12-29T01:29:56;5.38;;;1.02;;
84048;SDS011;74136;51.684;7.862;2023-12-29T01:32:24;5.63;;;1.50;;
84048;SDS011;74136;51.684;7.862;2023-12-29T01:34:50;12.05;;;1.55;;
84048;SDS011;74136;51.684;7.862;2023-12-29T01:37:16;10.40;;;1.33;;
84048;SDS011;74136;51.684;7.862;2023-12-29T01:39:42;6.10;;;1.20;;
84048;SDS011;74136;51.684;7.862;2023-12-29T01:42:07;6.57;;;1.38;;
84048;SDS011;74136;51.684;7.862;2023-12-29T01:44:32;6.15;;;1.30;;
84048;SDS011;74136;51.684;7.862;2023-12-29T01:47:01;7.78;;;1.15;;
84048;SDS011;74136;51.684;7.862;2023-12-29T01:49:27;8.50;;;1.20;;
84048;SDS011;74136;51.684;7.862;2023-12-29T01:51:56;7.18;;;1.10;;
84048;SDS011;74136;51.684;7.862;2023-12-29T01:54:24;5.93;;;1.23;;
84048;SDS011;74136;51.684;7.862;2023-12-29T01:56:53;7.88;;;1.38;;
84048;SDS011;74136;51.684;7.862;2023-12-29T01:59:21;5.57;;;1.35;;
84048;SDS011;74136;51.684;7.862;2023-12-29T02:01:47;12.05;;;1.85;;
84048;SDS011;74136;51.684;7.862;2023-12-29T02:04:13;7.50;;;1.65;;
84048;SDS011;74136;51.684;7.862;2023-12-29T02:06:40;7.70;;;1.48;;
84048;SDS011;74136;51.684;7.862;2023-12-29T02:09:06;8.52;;;1.42;;
84048;SDS011;74136;51.684;7.862;2023-12-29T02:11:32;5.95;;;0.90;;
84048;SDS011;74136;51.684;7.862;2023-12-29T02:13:58;8.23;;;1.45;;
84048;SDS011;74136;51.684;7.862;2023-12-29T02:22:02;4.13;;;1.10;;
84048;SDS011;74136;51.684;7.862;2023-12-29T02:24:27;9.68;;;1.40;;
84048;SDS011;74136;51.684;7.862;2023-12-29T02:26:57;8.80;;;1.35;;
84048;SDS011;74136;51.684;7.862;2023-12-29T02:29:28;5.40;;;1.08;;
84048;SDS011;74136;51.684;7.862;2023-12-29T02:31:56;8.82;;;1.40;;
84048;SDS011;74136;51.684;7.862;2023-12-29T02:34:24;7.72;;;2.30;;
84048;SDS011;74136;51.684;7.862;2023-12-29T02:36:52;10.23;;;2.63;;
84048;SDS011;74136;51.684;7.862;2023-12-29T02:39:19;11.20;;;2.00;;
84048;SDS011;74136;51.684;7.862;2023-12-29T02:41:45;11.25;;;1.85;;
84048;SDS011;74136;51.684;7.862;2023-12-29T02:44:10;11.98;;;2.45;;
84048;SDS011;74136;51.684;7.862;2023-12-29T02:46:35;13.70;;;2.55;;
84048;SDS011;74136;51.684;7.862;2023-12-29T02:49:01;8.93;;;2.15;;
84048;SDS011;74136;51.684;7.862;2023-12-29T02:51:26;16.38;;;2.65;;
84048;SDS011;74136;51.684;7.862;2023-12-29T02:53:51;11.93;;;2.58;;
84048;SDS011;74136;51.684;7.862;2023-12-29T02:56:17;14.00;;;2.65;;
84048;SDS011;74136;51.684;7.862;2023-12-29T02:58:42;11.98;;;2.85;;
84048;SDS011;74136;51.684;7.862;2023-12-29T03:01:07;9.98;;;1.83;;
84048;SDS011;74136;51.684;7.862;2023-12-29T03:03:33;13.73;;;2.58;;
84048;SDS011;74136;51.684;7.862;2023-12-29T03:05:58;16.13;;;3.78;;
84048;SDS011;74136;51.684;7.862;2023-12-29T03:08:23;10.68;;;2.70;;
84048;SDS011;74136;51.684;7.862;2023-12-29T03:10:48;8.93;;;2.50;;
84048;SDS011;74136;51.684;7.862;2023-12-29T03:13:14;13.68;;;3.72;;
84048;SDS011;74136;51.684;7.862;2023-12-29T03:15:39;15.20;;;2.95;;
84048;SDS011;74136;51.684;7.862;2023-12-29T03:18:05;12.65;;;2.75;;
84048;SDS011;74136;51.684;7.862;2023-12-29T03:20:30;15.50;;;3.45;;
84048;SDS011;74136;51.684;7.862;2023-12-29T03:22:55;16.58;;;3.25;;
84048;SDS011;74136;51.684;7.862;2023-12-29T03:25:21;13.70;;;3.58;;
84048;SDS011;74136;51.684;7.862;2023-12-29T03:27:46;9.75;;;3.00;;
84048;SDS011;74136;51.684;7.862;2023-12-29T03:30:11;21.30;;;3.65;;
84048;SDS011;74136;51.684;7.862;2023-12-29T03:32:37;9.98;;;3.20;;
84048;SDS011;74136;51.684;7.862;2023-12-29T03:35:02;7.65;;;3.35;;
84048;SDS011;74136;51.684;7.862;2023-12-29T03:37:29;15.95;;;3.25;;
84048;SDS011;74136;51.684;7.862;2023-12-29T03:39:54;11.23;;;3.78;;
84048;SDS011;74136;51.684;7.862;2023-12-29T03:42:19;11.77;;;3.33;;
84048;SDS011;74136;51.684;7.862;2023-12-29T03:44:45;11.93;;;2.78;;
84048;SDS011;74136;51.684;7.862;2023-12-29T03:47:10;9.77;;;2.75;;
84048;SDS011;74136;51.684;7.862;2023-12-29T03:49:35;10.52;;;3.05;;
84048;SDS011;74136;51.684;7.862;2023-12-29T03:52:01;12.18;;;2.65;;
84048;SDS011;74136;51.684;7.862;2023-12-29T03:54:26;14.45;;;3.13;;
84048;SDS011;74136;51.684;7.862;2023-12-29T03:56:51;14.27;;;2.60;;
84048;SDS011;74136;51.684;7.862;2023-12-29T03:59:17;11.65;;;2.50;;
84048;SDS011;74136;51.684;7.862;2023-12-29T04:01:42;14.68;;;3.60;;
84048;SDS011;74136;51.684;7.862;2023-12-29T04:04:08;13.50;;;2.75;;
84048;SDS011;74136;51.684;7.862;2023-12-29T04:06:33;12.82;;;3.28;;
84048;SDS011;74136;51.684;7.862;2023-12-29T04:08:58;13.00;;;2.72;;
84048;SDS011;74136;51.684;7.862;2023-12-29T04:11:24;10.55;;;3.20;;
84048;SDS011;74136;51.684;7.862;2023-12-29T04:13:49;13.55;;;2.70;;
84048;SDS011;74136;51.684;7.862;2023-12-29T04:16:14;8.80;;;2.28;;
84048;SDS011;74136;51.684;7.862;2023-12-29T04:18:40;15.93;;;2.83;;
84048;SDS011;74136;51.684;7.862;2023-12-29T04:21:05;13.05;;;2.35;;
84048;SDS011;74136;51.684;7.862;2023-12-29T04:23:33;17.63;;;2.67;;
84048;SDS011;74136;51.684;7.862;2023-12-29T04:25:58;18.17;;;2.70;;
84048;SDS011;74136;51.684;7.862;2023-12-29T04:28:24;9.23;;;2.45;;
84048;SDS011;74136;51.684;7.862;2023-12-29T04:30:49;11.68;;;2.33;;
84048;SDS011;74136;51.684;7.862;2023-12-29T04:33:14;14.70;;;3.00;;
84048;SDS011;74136;51.684;7.862;2023-12-29T04:35:40;11.65;;;2.28;;
84048;SDS011;74136;51.684;7.862;2023-12-29T04:38:05;12.60;;;2.40;;
84048;SDS011;74136;51.684;7.862;2023-12-29T04:40:31;11.93;;;2.45;;
84048;SDS011;74136;51.684;7.862;2023-12-29T04:42:57;12.98;;;2.58;;
84048;SDS011;74136;51.684;7.862;2023-12-29T04:45:22;10.05;;;1.70;;
84048;SDS011;74136;51.684;7.862;2023-12-29T04:47:47;10.70;;;2.80;;
84048;SDS011;74136;51.684;7.862;2023-12-29T04:50:12;7.30;;;2.20;;
84048;SDS011;74136;51.684;7.862;2023-12-29T04:52:38;8.30;;;2.40;;
84048;SDS011;74136;51.684;7.862;2023-12-29T04:55:03;10.07;;;1.90;;
84048;SDS011;74136;51.684;7.862;2023-12-29T04:57:29;12.48;;;2.40;;
84048;SDS011;74136;51.684;7.862;2023-12-29T04:59:54;9.93;;;2.25;;
84048;SDS011;74136;51.684;7.862;2023-12-29T05:02:19;14.18;;;2.10;;
84048;SDS011;74136;51.684;7.862;2023-12-29T05:04:45;8.15;;;1.77;;
84048;SDS011;74136;51.684;7.862;2023-12-29T05:07:11;10.63;;;2.42;;
84048;SDS011;74136;51.684;7.862;2023-12-29T05:09:36;9.85;;;2.00;;
84048;SDS011;74136;51.684;7.862;2023-12-29T05:12:02;8.07;;;1.80;;
84048;SDS011;74136;51.684;7.862;2023-12-29T05:14:27;13.48;;;2.60;;
84048;SDS011;74136;51.684;7.862;2023-12-29T05:16:53;12.93;;;1.90;;
84048;SDS011;74136;51.684;7.862;2023-12-29T05:19:18;6.82;;;1.67;;
84048;SDS011;74136;51.684;7.862;2023-12-29T05:21:43;8.73;;;1.80;;
84048;SDS011;74136;51.684;7.862;2023-12-29T05:24:09;11.70;;;1.70;;
84048;SDS011;74136;51.684;7.862;2023-12-29T05:26:34;9.00;;;1.70;;
84048;SDS011;74136;51.684;7.862;2023-12-29T05:28:59;11.52;;;2.90;;
84048;SDS011;74136;51.684;7.862;2023-12-29T05:31:25;8.63;;;1.60;;
84048;SDS011;74136;51.684;7.862;2023-12-29T05:33:50;13.88;;;2.95;;
84048;SDS011;74136;51.684;7.862;2023-12-29T05:36:16;16.40;;;2.30;;
84048;SDS011;74136;51.684;7.862;2023-12-29T05:38:43;10.45;;;2.08;;
84048;SDS011;74136;51.684;7.862;2023-12-29T05:41:12;8.07;;;1.88;;
84048;SDS011;74136;51.684;7.862;2023-12-29T05:43:38;6.97;;;1.48;;
84048;SDS011;74136;51.684;7.862;2023-12-29T05:46:06;10.30;;;2.10;;
84048;SDS011;74136;51.684;7.862;2023-12-29T05:48:35;8.40;;;1.35;;
84048;SDS011;74136;51.684;7.862;2023-12-29T05:51:05;11.00;;;2.05;;
84048;SDS011;74136;51.684;7.862;2023-12-29T05:53:32;10.13;;;1.73;;
84048;SDS011;74136;51.684;7.862;2023-12-29T05:55:57;9.95;;;2.00;;
84048;SDS011;74136;51.684;7.862;2023-12-29T05:58:22;13.43;;;2.13;;
84048;SDS011;74136;51.684;7.862;2023-12-29T06:00:48;7.90;;;1.80;;
84048;SDS011;74136;51.684;7.862;2023-12-29T06:03:13;8.85;;;1.73;;
84048;SDS011;74136;51.684;7.862;2023-12-29T06:05:39;12.93;;;2.05;;
84048;SDS011;74136;51.684;7.862;2023-12-29T06:08:04;12.40;;;1.63;;
84048;SDS011;74136;51.684;7.862;2023-12-29T06:10:30;10.70;;;1.80;;
84048;SDS011;74136;51.684;7.862;2023-12-29T06:12:56;10.68;;;2.28;;
84048;SDS011;74136;51.684;7.862;2023-12-29T06:15:21;16.25;;;2.05;;
84048;SDS011;74136;51.684;7.862;2023-12-29T06:17:46;8.57;;;2.35;;
84048;SDS011;74136;51.684;7.862;2023-12-29T06:20:12;7.25;;;1.30;;
84048;SDS011;74136;51.684;7.862;2023-12-29T06:22:40;9.30;;;1.42;;
84048;SDS011;74136;51.684;7.862;2023-12-29T06:27:35;10.90;;;2.00;;
84048;SDS011;74136;51.684;7.862;2023-12-29T06:30:04;12.23;;;1.83;;
84048;SDS011;74136;51.684;7.862;2023-12-29T06:32:30;10.75;;;1.58;;
84048;SDS011;74136;51.684;7.862;2023-12-29T06:34:56;11.48;;;1.52;;
84048;SDS011;74136;51.684;7.862;2023-12-29T06:37:21;11.93;;;2.33;;
84048;SDS011;74136;51.684;7.862;2023-12-29T06:39:47;9.70;;;1.90;;
84048;SDS011;74136;51.684;7.862;2023-12-29T06:42:12;14.38;;;1.92;;
84048;SDS011;74136;51.684;7.862;2023-12-29T06:44:37;9.70;;;1.77;;
84048;SDS011;74136;51.684;7.862;2023-12-29T06:47:03;10.95;;;1.73;;
84048;SDS011;74136;51.684;7.862;2023-12-29T06:49:30;15.10;;;2.13;;
84048;SDS011;74136;51.684;7.862;2023-12-29T06:51:56;11.70;;;1.60;;
84048;SDS011;74136;51.684;7.862;2023-12-29T06:54:22;14.02;;;1.98;;
84048;SDS011;74136;51.684;7.862;2023-12-29T06:56:47;9.90;;;1.50;;
84048;SDS011;74136;51.684;7.862;2023-12-29T06:59:13;12.65;;;1.80;;
84048;SDS011;74136;51.684;7.862;2023-12-29T07:01:39;11.20;;;1.30;;
84048;SDS011;74136;51.684;7.862;2023-12-29T07:04:07;6.65;;;1.55;;
84048;SDS011;74136;51.684;7.862;2023-12-29T07:06:35;11.63;;;2.28;;
84048;SDS011;74136;51.684;7.862;2023-12-29T07:09:02;6.35;;;1.48;;
84048;SDS011;74136;51.684;7.862;2023-12-29T07:11:28;9.05;;;1.45;;
84048;SDS011;74136;51.684;7.862;2023-12-29T07:13:54;8.85;;;1.58;;
84048;SDS011;74136;51.684;7.862;2023-12-29T07:16:19;13.32;;;2.15;;
84048;SDS011;74136;51.684;7.862;2023-12-29T07:18:45;8.65;;;1.48;;
84048;SDS011;74136;51.684;7.862;2023-12-29T07:21:11;9.10;;;1.10;;
84048;SDS011;74136;51.684;7.862;2023-12-29T07:23:37;8.95;;;2.00;;
84048;SDS011;74136;51.684;7.862;2023-12-29T07:26:03;19.52;;;2.05;;
84048;SDS011;74136;51.684;7.862;2023-12-29T07:28:28;14.07;;;1.70;;
84048;SDS011;74136;51.684;7.862;2023-12-29T07:30:53;12.85;;;2.65;;
84048;SDS011;74136;51.684;7.862;2023-12-29T07:33:19;8.10;;;1.40;;
84048;SDS011;74136;51.684;7.862;2023-12-29T07:35:44;14.13;;;1.75;;
84048;SDS011;74136;51.684;7.862;2023-12-29T07:38:09;11.20;;;1.60;;
84048;SDS011;74136;51.684;7.862;2023-12-29T07:40:35;8.65;;;1.23;;
84048;SDS011;74136;51.684;7.862;2023-12-29T07:43:00;9.73;;;1.98;;
84048;SDS011;74136;51.684;7.862;2023-12-29T07:45:25;11.98;;;1.60;;
84048;SDS011;74136;51.684;7.862;2023-12-29T07:47:51;11.57;;;1.50;;
84048;SDS011;74136;51.684;7.862;2023-12-29T07:50:16;13.27;;;2.10;;
84048;SDS011;74136;51.684;7.862;2023-12-29T07:52:42;12.15;;;1.88;;
84048;SDS011;74136;51.684;7.862;2023-12-29T07:55:09;11.98;;;1.58;;
84048;SDS011;74136;51.684;7.862;2023-12-29T07:57:34;9.23;;;1.60;;
84048;SDS011;74136;51.684;7.862;2023-12-29T08:00:00;16.83;;;2.58;;
84048;SDS011;74136;51.684;7.862;2023-12-29T08:02:26;14.55;;;3.00;;
84048;SDS011;74136;51.684;7.862;2023-12-29T08:04:52;16.63;;;2.22;;
84048;SDS011;74136;51.684;7.862;2023-12-29T08:07:19;10.40;;;2.20;;
84048;SDS011;74136;51.684;7.862;2023-12-29T08:09:44;14.85;;;2.78;;
84048;SDS011;74136;51.684;7.862;2023-12-29T08:12:10;9.93;;;2.38;;
84048;SDS011;74136;51.684;7.862;2023-12-29T08:14:35;6.97;;;1.88;;
84048;SDS011;74136;51.684;7.862;2023-12-29T08:17:01;9.85;;;1.85;;
84048;SDS011;74136;51.684;7.862;2023-12-29T08:19:26;7.90;;;2.17;;
84048;SDS011;74136;51.684;7.862;2023-12-29T08:21:54;9.75;;;2.25;;
84048;SDS011;74136;51.684;7.862;2023-12-29T08:24:20;8.65;;;2.58;;
84048;SDS011;74136;51.684;7.862;2023-12-29T08:26:46;8.70;;;1.95;;
84048;SDS011;74136;51.684;7.862;2023-12-29T08:29:15;10.95;;;2.20;;
84048;SDS011;74136;51.684;7.862;2023-12-29T08:31:41;6.57;;;1.30;;
84048;SDS011;74136;51.684;7.862;2023-12-29T08:34:09;9.93;;;1.90;;
84048;SDS011;74136;51.684;7.862;2023-12-29T08:36:34;9.02;;;2.63;;
84048;SDS011;74136;51.684;7.862;2023-12-29T08:39:00;8.85;;;1.70;;
84048;SDS011;74136;51.684;7.862;2023-12-29T08:41:26;7.75;;;2.47;;
84048;SDS011;74136;51.684;7.862;2023-12-29T08:43:51;7.63;;;1.80;;
84048;SDS011;74136;51.684;7.862;2023-12-29T08:46:16;9.38;;;2.00;;
84048;SDS011;74136;51.684;7.862;2023-12-29T08:48:42;7.93;;;2.00;;
84048;SDS011;74136;51.684;7.862;2023-12-29T08:51:07;13.60;;;3.08;;
84048;SDS011;74136;51.684;7.862;2023-12-29T08:53:32;11.38;;;2.30;;
84048;SDS011;74136;51.684;7.862;2023-12-29T08:56:00;11.90;;;2.30;;
84048;SDS011;74136;51.684;7.862;2023-12-29T08:58:26;14.68;;;2.65;;
84048;SDS011;74136;51.684;7.862;2023-12-29T09:00:52;13.30;;;3.50;;
84048;SDS011;74136;51.684;7.862;2023-12-29T09:03:17;13.57;;;2.88;;
84048;SDS011;74136;51.684;7.862;2023-12-29T09:05:42;8.10;;;2.58;;
84048;SDS011;74136;51.684;7.862;2023-12-29T09:08:08;10.93;;;2.75;;
84048;SDS011;74136;51.684;7.862;2023-12-29T09:10:33;8.95;;;2.28;;
84048;SDS011;74136;51.684;7.862;2023-12-29T09:12:58;8.98;;;2.13;;
84048;SDS011;74136;51.684;7.862;2023-12-29T09:15:24;11.10;;;2.15;;
84048;SDS011;74136;51.684;7.862;2023-12-29T09:17:49;10.57;;;2.20;;
84048;SDS011;74136;51.684;7.862;2023-12-29T09:20:15;14.43;;;1.75;;
84048;SDS011;74136;51.684;7.862;2023-12-29T09:22:41;8.00;;;2.13;;
84048;SDS011;74136;51.684;7.862;2023-12-29T09:25:07;5.85;;;1.60;;
84048;SDS011;74136;51.684;7.862;2023-12-29T09:27:32;10.07;;;1.77;;
84048;SDS011;74136;51.684;7.862;2023-12-29T09:29:57;7.00;;;2.05;;
84048;SDS011;74136;51.684;7.862;2023-12-29T09:32:23;7.30;;;1.85;;
84048;SDS011;74136;51.684;7.862;2023-12-29T09:34:48;11.02;;;1.73;;
84048;SDS011;74136;51.684;7.862;2023-12-29T09:37:13;5.68;;;1.90;;
84048;SDS011;74136;51.684;7.862;2023-12-29T09:39:39;4.82;;;1.10;;
84048;SDS011;74136;51.684;7.862;2023-12-29T09:42:04;3.58;;;1.15;;
84048;SDS011;74136;51.684;7.862;2023-12-29T09:44:31;6.38;;;1.40;;
84048;SDS011;74136;51.684;7.862;2023-12-29T09:47:03;3.65;;;1.15;;
84048;SDS011;74136;51.684;7.862;2023-12-29T09:49:38;7.00;;;1.33;;
84048;SDS011;74136;51.684;7.862;2023-12-29T09:52:06;5.07;;;1.30;;
84048;SDS011;74136;51.684;7.862;2023-12-29T09:57:00;4.30;;;1.17;;
84048;SDS011;74136;51.684;7.862;2023-12-29T09:59:27;4.32;;;1.02;;
84048;SDS011;74136;51.684;7.862;2023-12-29T10:01:53;3.22;;;0.90;;
84048;SDS011;74136;51.684;7.862;2023-12-29T10:04:19;3.95;;;1.15;;
84048;SDS011;74136;51.684;7.862;2023-12-29T10:06:44;2.70;;;0.93;;
84048;SDS011;74136;51.684;7.862;2023-12-29T10:09:14;4.97;;;1.10;;
84048;SDS011;74136;51.684;7.862;2023-12-29T10:11:42;4.13;;;0.55;;
84048;SDS011;74136;51.684;7.862;2023-12-29T10:16:53;3.75;;;1.00;;
84048;SDS011;74136;51.684;7.862;2023-12-29T10:19:27;4.18;;;0.80;;
84048;SDS011;74136;51.684;7.862;2023-12-29T10:25:13;3.40;;;0.70;;
84048;SDS011;74136;51.684;7.862;2023-12-29T10:27:39;2.83;;;0.60;;
84048;SDS011;74136;51.684;7.862;2023-12-29T10:30:05;5.68;;;0.68;;
84048;SDS011;74136;51.684;7.862;2023-12-29T10:32:35;4.45;;;0.77;;
84048;SDS011;74136;51.684;7.862;2023-12-29T10:35:07;2.28;;;0.30;;
84048;SDS011;74136;51.684;7.862;2023-12-29T10:37:34;2.25;;;0.30;;
84048;SDS011;74136;51.684;7.862;2023-12-29T10:40:00;3.03;;;0.28;;
84048;SDS011;74136;51.684;7.862;2023-12-29T10:42:26;3.03;;;0.60;;
84048;SDS011;74136;51.684;7.862;2023-12-29T10:45:04;2.55;;;0.40;;
84048;SDS011;74136;51.684;7.862;2023-12-29T10:47:31;2.65;;;0.65;;
84048;SDS011;74136;51.684;7.862;2023-12-29T10:49:58;4.90;;;0.50;;
84048;SDS011;74136;51.684;7.862;2023-12-29T10:52:25;2.80;;;0.40;;
84048;SDS011;74136;51.684;7.862;2023-12-29T10:54:50;1.30;;;0.40;;
84048;SDS011;74136;51.684;7.862;2023-12-29T10:57:29;2.90;;;0.80;;
84048;SDS011;74136;51.684;7.862;2023-12-29T10:59:55;1.60;;;0.40;;
84048;SDS011;74136;51.684;7.862;2023-12-29T11:02:21;3.70;;;0.63;;
84048;SDS011;74136;51.684;7.862;2023-12-29T11:04:46;2.53;;;0.50;;
84048;SDS011;74136;51.684;7.862;2023-12-29T11:07:12;3.28;;;0.40;;
84048;SDS011;74136;51.684;7.862;2023-12-29T11:09:38;1.92;;;0.60;;
84048;SDS011;74136;51.684;7.862;2023-12-29T11:12:04;1.98;;;0.30;;
84048;SDS011;74136;51.684;7.862;2023-12-29T11:14:31;1.58;;;0.30;;
84048;SDS011;74136;51.684;7.862;2023-12-29T11:16:57;1.15;;;0.50;;
84048;SDS011;74136;51.684;7.862;2023-12-29T11:19:25;0.70;;;0.20;;
84048;SDS011;74136;51.684;7.862;2023-12-29T11:21:56;3.85;;;0.88;;
84048;SDS011;74136;51.684;7.862;2023-12-29T11:24:22;3.13;;;0.20;;
84048;SDS011;74136;51.684;7.862;2023-12-29T11:26:49;1.48;;;0.40;;
84048;SDS011;74136;51.684;7.862;2023-12-29T11:29:18;1.45;;;0.30;;
84048;SDS011;74136;51.684;7.862;2023-12-29T11:31:44;1.50;;;0.25;;
84048;SDS011;74136;51.684;7.862;2023-12-29T11:36:46;1.30;;;0.52;;
84048;SDS011;74136;51.684;7.862;2023-12-29T11:39:35;2.90;;;0.43;;
84048;SDS011;74136;51.684;7.862;2023-12-29T11:42:12;2.97;;;0.60;;
84048;SDS011;74136;51.684;7.862;2023-12-29T11:44:47;2.92;;;0.60;;
84048;SDS011;74136;51.684;7.862;2023-12-29T11:54:05;2.75;;;0.68;;
84048;SDS011;74136;51.684;7.862;2023-12-29T11:56:39;1.95;;;0.57;;
84048;SDS011;74136;51.684;7.862;2023-12-29T11:59:21;2.80;;;0.38;;
84048;SDS011;74136;51.684;7.862;2023-12-29T12:01:48;2.60;;;0.82;;
84048;SDS011;74136;51.684;7.862;2023-12-29T12:07:05;1.67;;;0.60;;
84048;SDS011;74136;51.684;7.862;2023-12-29T12:09:49;4.20;;;0.80;;
84048;SDS011;74136;51.684;7.862;2023-12-29T12:17:54;2.83;;;0.90;;
84048;SDS011;74136;51.684;7.862;2023-12-29T12:20:20;3.92;;;0.90;;
84048;SDS011;74136;51.684;7.862;2023-12-29T12:22:47;2.90;;;0.63;;
84048;SDS011;74136;51.684;7.862;2023-12-29T12:25:20;5.20;;;1.20;;
84048;SDS011;74136;51.684;7.862;2023-12-29T12:27:46;2.55;;;1.05;;
84048;SDS011;74136;51.684;7.862;2023-12-29T12:30:12;4.68;;;1.10;;
84048;SDS011;74136;51.684;7.862;2023-12-29T12:32:43;6.03;;;1.38;;
84048;SDS011;74136;51.684;7.862;2023-12-29T12:35:15;5.07;;;1.33;;
84048;SDS011;74136;51.684;7.862;2023-12-29T12:37:43;6.05;;;1.20;;
84048;SDS011;74136;51.684;7.862;2023-12-29T12:40:09;3.80;;;1.45;;
84048;SDS011;74136;51.684;7.862;2023-12-29T12:42:38;6.05;;;1.45;;
84048;SDS011;74136;51.684;7.862;2023-12-29T12:45:17;5.90;;;1.95;;
84048;SDS011;74136;51.684;7.862;2023-12-29T12:47:50;4.88;;;1.45;;
84048;SDS011;74136;51.684;7.862;2023-12-29T12:50:19;4.43;;;1.70;;
84048;SDS011;74136;51.684;7.862;2023-12-29T12:52:45;6.47;;;2.05;;
84048;SDS011;74136;51.684;7.862;2023-12-29T12:55:10;6.93;;;2.25;;
84048;SDS011;74136;51.684;7.862;2023-12-29T12:57:37;5.22;;;1.55;;
84048;SDS011;74136;51.684;7.862;2023-12-29T13:00:04;9.57;;;2.75;;
84048;SDS011;74136;51.684;7.862;2023-12-29T13:02:31;6.32;;;1.92;;
84048;SDS011;74136;51.684;7.862;2023-12-29T13:04:57;8.57;;;1.75;;
84048;SDS011;74136;51.684;7.862;2023-12-29T13:07:23;7.10;;;1.08;;
84048;SDS011;74136;51.684;7.862;2023-12-29T13:09:49;5.80;;;1.40;;
84048;SDS011;74136;51.684;7.862;2023-12-29T13:12:16;8.02;;;1.40;;
84048;SDS011;74136;51.684;7.862;2023-12-29T13:14:43;6.60;;;1.30;;
84048;SDS011;74136;51.684;7.862;2023-12-29T13:17:10;3.72;;;1.15;;
84048;SDS011;74136;51.684;7.862;2023-12-29T13:19:37;4.07;;;1.30;;
84048;SDS011;74136;51.684;7.862;2023-12-29T13:22:10;5.32;;;1.23;;
84048;SDS011;74136;51.684;7.862;2023-12-29T13:24:46;5.13;;;1.30;;
84048;SDS011;74136;51.684;7.862;2023-12-29T13:27:12;4.93;;;1.25;;
84048;SDS011;74136;51.684;7.862;2023-12-29T13:29:38;9.85;;;1.88;;
84048;SDS011;74136;51.684;7.862;2023-12-29T13:34:41;4.90;;;1.30;;
84048;SDS011;74136;51.684;7.862;2023-12-29T13:40:27;4.50;;;1.92;;
84048;SDS011;74136;51.684;7.862;2023-12-29T13:43:01;6.72;;;2.33;;
84048;SDS011;74136;51.684;7.862;2023-12-29T13:45:31;4.20;;;2.55;;
84048;SDS011;74136;51.684;7.862;2023-12-29T13:47:57;7.05;;;1.52;;
84048;SDS011;74136;51.684;7.862;2023-12-29T13:50:24;4.10;;;1.00;;
84048;SDS011;74136;51.684;7.862;2023-12-29T13:52:50;5.53;;;1.70;;
84048;SDS011;74136;51.684;7.862;2023-12-29T13:55:21;3.30;;;1.42;;
84048;SDS011;74136;51.684;7.862;2023-12-29T13:57:48;6.63;;;1.50;;
84048;SDS011;74136;51.684;7.862;2023-12-29T14:02:48;5.68;;;1.88;;
84048;SDS011;74136;51.684;7.862;2023-12-29T14:08:00;5.20;;;1.77;;
84048;SDS011;74136;51.684;7.862;2023-12-29T14:10:33;3.30;;;1.02;;
84048;SDS011;74136;51.684;7.862;2023-12-29T14:15:35;6.13;;;1.50;;
84048;SDS011;74136;51.684;7.862;2023-12-29T14:18:01;4.82;;;1.00;;
84048;SDS011;74136;51.684;7.862;2023-12-29T14:20:40;4.63;;;1.40;;
84048;SDS011;74136;51.684;7.862;2023-12-29T14:23:06;5.28;;;1.00;;
84048;SDS011;74136;51.684;7.862;2023-12-29T14:25:35;5.43;;;1.48;;
84048;SDS011;74136;51.684;7.862;2023-12-29T14:28:13;6.38;;;1.23;;
84048;SDS011;74136;51.684;7.862;2023-12-29T14:30:40;7.30;;;1.08;;
84048;SDS011;74136;51.684;7.862;2023-12-29T14:33:05;6.35;;;1.30;;
84048;SDS011;74136;51.684;7.862;2023-12-29T14:35:31;5.07;;;1.10;;
84048;SDS011;74136;51.684;7.862;2023-12-29T14:37:57;3.72;;;1.10;;
84048;SDS011;74136;51.684;7.862;2023-12-29T14:40:22;2.72;;;0.90;;
84048;SDS011;74136;51.684;7.862;2023-12-29T14:42:48;3.53;;;0.70;;
84048;SDS011;74136;51.684;7.862;2023-12-29T14:45:13;4.38;;;0.75;;
84048;SDS011;74136;51.684;7.862;2023-12-29T14:47:39;4.38;;;1.10;;
84048;SDS011;74136;51.684;7.862;2023-12-29T14:50:04;3.78;;;0.85;;
84048;SDS011;74136;51.684;7.862;2023-12-29T14:52:30;2.10;;;0.90;;
84048;SDS011;74136;51.684;7.862;2023-12-29T14:54:55;5.15;;;0.93;;
84048;SDS011;74136;51.684;7.862;2023-12-29T14:57:21;4.43;;;1.30;;
84048;SDS011;74136;51.684;7.862;2023-12-29T14:59:46;3.83;;;1.33;;
84048;SDS011;74136;51.684;7.862;2023-12-29T15:02:11;4.55;;;1.85;;
84048;SDS011;74136;51.684;7.862;2023-12-29T15:04:37;4.03;;;1.13;;
84048;SDS011;74136;51.684;7.862;2023-12-29T15:07:02;3.28;;;1.60;;
84048;SDS011;74136;51.684;7.862;2023-12-29T15:09:28;4.97;;;2.47;;
84048;SDS011;74136;51.684;7.862;2023-12-29T15:11:55;4.32;;;1.88;;
84048;SDS011;74136;51.684;7.862;2023-12-29T15:14:20;8.15;;;2.58;;
84048;SDS011;74136;51.684;7.862;2023-12-29T15:16:46;8.20;;;2.60;;
84048;SDS011;74136;51.684;7.862;2023-12-29T15:19:11;6.47;;;2.50;;
84048;SDS011;74136;51.684;7.862;2023-12-29T15:21:40;6.90;;;3.50;;
84048;SDS011;74136;51.684;7.862;2023-12-29T15:24:06;6.07;;;2.40;;
84048;SDS011;74136;51.684;7.862;2023-12-29T15:26:32;6.63;;;2.85;;